Airfield :
LOGIN :

Register | Disclaimer

   EN    FR    IT 

 










Legend :    VFR   Marginal VFR   IFR   Intensive IFR   Very Intensive IFR
Visi :
Ceiling :
>= 8 km
>= 3000ft
5 to 8 km
1000 to 3000 ft
1500m to 5 km
500 to 1000 ft
800 to 1500m
200 to 500 ft
< 800m
< 200 ft
Symbols :   Thunderstorms  Fog  Heavy snow  Heavy precipitations  Wind > 20 kt
SIGMETs :     Misc.  Thunderstorms  Icing  Turbulence  Mountain Waves  Volcanic Ashes






- Airport Elevation : 47 ft
- IATA code : BDS


LIBR - Casale Arpt. Brindisi

CURRENT METAR :
  • 241250Z 17010KT CAVOK 15/05 Q1028

EXPIRED METARs :
  • 241220Z 18008KT CAVOK 15/07 Q1028
  • 241150Z 19007KT 140V220 CAVOK 15/07 Q1028
  • 241120Z 18006KT 140V260 9999 FEW025 15/08 Q1029
  • 241050Z 17006KT 140V200 CAVOK 14/08 Q1029
  • 241020Z 21005KT 170V280 9999 FEW025 14/08 Q1029

TAF TAF LIBR
Valid from the 24 at 12:00 until the 25 at 12:00 UTC


241100Z 2412/2512 17015KT CAVOK



MET'MAP, your aeronautical weather chart ! - Copyright ORBIFLY December 2007 - Disclaimer

ORBIFLY MET'MAP TEAM :

Programming & Development : Alexandra Zaïnal
Concept & original design : Baudouin d'Aumeries
Assistance for programming : Marc-Olivier Méhu
Technical & hardware support : Manuel Goepfert

Contact : metmap@orbifly.com




SOURCES & CREDITS :

   NOAA